createdAt,value
2023-03-23T15:59:56.099Z,44.14
2023-03-23T16:03:02.597Z,44.46
2023-03-23T16:06:05.936Z,44.46
2023-03-23T16:09:16.197Z,44.64
2023-03-23T16:12:21.903Z,44.78
2023-03-23T16:15:24.779Z,44.89
2023-03-23T16:18:27.517Z,45.08
2023-03-23T16:21:30.695Z,45.19
2023-03-23T16:24:33.721Z,45.32
2023-03-23T16:27:37.067Z,45.53
2023-03-23T16:30:42.602Z,45.55
2023-03-23T16:33:45.402Z,45.49
2023-03-23T16:36:48.230Z,45.65
2023-03-23T16:39:51.070Z,45.83
2023-03-23T16:42:54.528Z,45.89
2023-03-23T16:45:58.205Z,46.10
2023-03-23T16:49:01.072Z,46.12
2023-03-23T16:52:03.975Z,46.42
2023-03-23T16:55:07.870Z,46.51
2023-03-23T16:58:16.888Z,46.73
2023-03-23T17:01:20.230Z,46.81
2023-03-23T17:04:24.806Z,47.00
2023-03-23T17:07:28.482Z,47.22
2023-03-23T17:10:32.266Z,47.48
2023-03-23T17:13:38.468Z,47.77
2023-03-23T17:16:41.669Z,47.84
2023-03-23T17:19:44.575Z,47.94
2023-03-23T17:22:48.278Z,48.21
2023-03-23T17:25:51.732Z,48.30
2023-03-23T17:28:54.585Z,48.44
2023-03-23T17:31:57.531Z,48.73
2023-03-23T17:35:00.758Z,49.10
2023-03-23T17:38:03.738Z,49.18
2023-03-23T17:41:08.212Z,49.26
2023-03-23T17:44:11.265Z,49.39
2023-03-23T17:47:14.263Z,49.59
2023-03-23T17:50:17.647Z,49.99
2023-03-23T17:53:20.613Z,50.09
2023-03-23T17:56:23.451Z,50.29
2023-03-23T17:59:27.567Z,50.51
2023-03-23T18:02:30.514Z,50.61
2023-03-23T18:05:34.737Z,50.61
2023-03-23T18:08:38.374Z,50.73
2023-03-23T18:11:42.310Z,50.84
2023-03-23T18:14:45.207Z,50.97
2023-03-23T18:17:50.674Z,51.15
2023-03-23T18:20:54.930Z,51.35
2023-03-23T18:23:59.874Z,51.39
2023-03-23T18:27:05.988Z,51.37
2023-03-23T18:30:10.728Z,51.34
2023-03-23T18:33:13.605Z,51.46
2023-03-23T18:36:19.597Z,51.34
2023-03-23T18:39:22.661Z,50.97
2023-03-23T18:42:28.373Z,50.83
2023-03-23T18:45:31.327Z,50.79
2023-03-23T18:48:40.693Z,50.72
2023-03-23T18:51:43.615Z,50.98
2023-03-23T18:54:46.634Z,50.85
2023-03-23T18:57:50.323Z,50.88
2023-03-23T19:00:57.330Z,50.93
2023-03-23T19:04:00.430Z,50.97
2023-03-23T19:07:03.626Z,51.19
2023-03-23T19:10:09.904Z,51.45
2023-03-23T19:13:13.634Z,51.59
2023-03-23T19:16:16.523Z,51.60
2023-03-23T19:19:20.294Z,51.75
2023-03-23T19:22:23.504Z,51.70
2023-03-23T19:25:26.988Z,51.76
2023-03-23T19:31:35.995Z,51.67
2023-03-23T19:34:39.582Z,51.75
2023-03-23T19:37:42.685Z,51.79
2023-03-23T19:41:03.892Z,51.78
2023-03-23T19:44:08.679Z,51.84
2023-03-23T19:47:11.791Z,51.81
2023-03-23T19:50:14.759Z,51.86
2023-03-23T19:53:19.229Z,51.93
2023-03-23T19:56:22.776Z,51.99
2023-03-23T19:59:26.381Z,51.97
2023-03-23T20:02:29.285Z,52.05
2023-03-23T20:05:35.100Z,52.08
2023-03-23T20:08:43.347Z,52.10
2023-03-23T20:11:50.050Z,52.04
2023-03-23T20:14:53.334Z,52.14
2023-03-23T20:17:57.986Z,52.11
2023-03-23T20:21:06.822Z,52.28
2023-03-23T20:24:09.782Z,52.30
2023-03-23T20:27:17.522Z,52.23
2023-03-23T20:30:20.709Z,52.20
2023-03-23T20:33:23.620Z,52.18
2023-03-23T20:36:29.937Z,52.25
2023-03-23T20:39:33.782Z,52.31
2023-03-23T20:42:37.277Z,52.31
2023-03-23T20:45:40.137Z,52.28
2023-03-23T20:48:43.091Z,52.23
2023-03-23T20:51:46.772Z,52.24
2023-03-23T20:54:50.941Z,52.03
2023-03-23T20:57:53.830Z,52.01
2023-03-23T21:00:58.566Z,52.00
2023-03-23T21:04:03.276Z,51.88
2023-03-23T21:07:06.415Z,51.84
2023-03-23T21:10:09.339Z,51.82
2023-03-23T21:13:13.653Z,51.88
2023-03-23T21:16:21.788Z,51.92
2023-03-23T21:19:25.033Z,51.94
2023-03-23T21:22:29.144Z,52.08
2023-03-23T21:25:35.423Z,52.24
2023-03-23T21:28:38.433Z,52.40
2023-03-23T21:31:41.955Z,52.59
2023-03-23T21:34:47.526Z,52.83
2023-03-23T21:37:50.577Z,53.05
2023-03-23T21:41:01.735Z,53.29
2023-03-23T21:44:05.614Z,53.49
2023-03-23T21:47:10.935Z,53.62
2023-03-23T21:50:14.770Z,53.95
2023-03-23T21:53:18.723Z,54.58
2023-03-23T21:56:24.454Z,54.33
2023-03-23T21:59:27.650Z,54.99
2023-03-23T22:02:32.312Z,54.85
2023-03-23T22:05:39.965Z,55.62
2023-03-23T22:08:44.736Z,55.39
2023-03-23T22:11:47.802Z,55.69
2023-03-23T22:14:50.797Z,56.42
2023-03-23T22:17:55.300Z,56.10
2023-03-23T22:20:59.128Z,55.54
2023-03-23T22:24:02.363Z,55.91
2023-03-23T22:27:05.382Z,56.26
2023-03-23T22:30:13.679Z,56.02
2023-03-23T22:33:18.002Z,55.86
2023-03-23T22:36:28.024Z,56.16
2023-03-23T22:39:31.762Z,56.51
2023-03-23T22:42:34.959Z,56.12
2023-03-23T22:45:41.244Z,56.68
2023-03-23T22:48:46.305Z,56.67
2023-03-23T22:51:50.230Z,56.96
2023-03-23T22:54:53.674Z,57.53
2023-03-23T22:57:56.752Z,56.72
2023-03-23T23:01:06.309Z,56.89
2023-03-23T23:04:09.605Z,56.91
2023-03-23T23:07:14.382Z,57.09
2023-03-23T23:10:17.463Z,56.99
2023-03-23T23:13:20.718Z,57.13
2023-03-23T23:16:26.469Z,57.27
2023-03-23T23:19:29.467Z,57.91
2023-03-23T23:22:32.937Z,57.22
2023-03-23T23:25:36.921Z,57.39
2023-03-23T23:28:40.532Z,57.52
2023-03-23T23:31:43.999Z,57.58
2023-03-23T23:34:46.936Z,57.82
2023-03-23T23:37:50.459Z,57.96
2023-03-23T23:40:53.668Z,59.02
2023-03-23T23:43:56.800Z,58.29
2023-03-23T23:46:59.701Z,58.03
2023-03-23T23:50:04.149Z,58.45
2023-03-23T23:53:09.984Z,59.22
2023-03-23T23:56:14.053Z,58.43
2023-03-23T23:59:17.496Z,58.33
